createdAt,value
2022-07-25T00:00:27.946Z,24.04
2022-07-25T00:02:55.895Z,23.99
2022-07-25T00:05:25.736Z,23.94
2022-07-25T00:07:53.679Z,23.92
2022-07-25T00:10:21.897Z,23.88
2022-07-25T00:12:50.069Z,23.87
2022-07-25T00:15:18.219Z,23.84
2022-07-25T00:17:46.396Z,23.84
2022-07-25T00:20:14.634Z,23.81
2022-07-25T00:22:44.066Z,23.79
2022-07-25T00:25:12.391Z,23.77
2022-07-25T00:27:40.422Z,23.72
2022-07-25T00:30:09.555Z,23.71
2022-07-25T00:32:37.661Z,23.65
2022-07-25T00:35:06.521Z,23.60
2022-07-25T00:37:34.529Z,23.58
2022-07-25T00:40:04.012Z,23.56
2022-07-25T00:42:32.082Z,23.54
2022-07-25T00:45:00.344Z,23.52
2022-07-25T00:47:28.307Z,23.49
2022-07-25T00:49:56.330Z,23.46
2022-07-25T00:52:24.766Z,23.47
2022-07-25T00:54:52.876Z,23.46
2022-07-25T00:57:22.180Z,23.43
2022-07-25T00:59:50.240Z,23.40
2022-07-25T01:02:18.384Z,23.40
2022-07-25T01:04:46.355Z,23.37
2022-07-25T01:07:15.044Z,23.38
2022-07-25T01:09:43.465Z,23.37
2022-07-25T01:12:11.507Z,23.36
2022-07-25T01:14:40.970Z,23.38
2022-07-25T01:17:08.887Z,23.39
2022-07-25T01:19:36.848Z,23.44
2022-07-25T01:22:06.709Z,23.48
2022-07-25T01:24:35.759Z,23.53
2022-07-25T01:27:03.943Z,23.56
2022-07-25T01:29:31.947Z,23.61
2022-07-25T01:32:00.016Z,23.65
2022-07-25T01:34:28.044Z,23.67
2022-07-25T01:36:55.966Z,23.70
2022-07-25T01:39:25.359Z,23.70
2022-07-25T01:41:53.329Z,23.72
2022-07-25T01:44:21.298Z,23.72
2022-07-25T01:46:49.487Z,23.72
2022-07-25T01:49:17.651Z,23.70
2022-07-25T01:51:45.707Z,23.71
2022-07-25T01:54:14.595Z,23.70
2022-07-25T01:56:46.950Z,23.69
2022-07-25T01:59:16.999Z,23.68
2022-07-25T02:01:45.279Z,23.65
2022-07-25T02:04:13.361Z,23.65
2022-07-25T02:06:41.988Z,23.59
2022-07-25T02:09:10.194Z,23.59
2022-07-25T02:11:38.183Z,23.57
2022-07-25T02:14:08.101Z,23.53
2022-07-25T02:16:36.401Z,23.53
2022-07-25T02:19:04.793Z,23.52
2022-07-25T02:21:32.951Z,23.52
2022-07-25T02:24:00.963Z,23.52
2022-07-25T02:26:28.894Z,23.50
2022-07-25T02:28:56.870Z,23.50
2022-07-25T02:31:26.443Z,23.47
2022-07-25T02:33:54.464Z,23.47
2022-07-25T02:36:22.687Z,23.46
2022-07-25T02:38:50.721Z,23.45
2022-07-25T02:41:18.803Z,23.45
2022-07-25T02:43:46.852Z,23.44
2022-07-25T02:46:15.035Z,23.40
2022-07-25T02:48:44.694Z,23.38
2022-07-25T02:51:13.038Z,23.36
2022-07-25T02:53:56.611Z,23.33
2022-07-25T02:56:26.288Z,23.26
2022-07-25T02:58:58.008Z,23.22
2022-07-25T03:01:26.074Z,23.16
2022-07-25T03:03:55.576Z,23.13
2022-07-25T03:06:23.574Z,23.11
2022-07-25T03:08:51.499Z,23.05
2022-07-25T03:11:19.725Z,23.01
2022-07-25T03:13:47.706Z,22.98
2022-07-25T03:16:15.824Z,22.93
2022-07-25T03:18:43.815Z,22.93
2022-07-25T03:21:13.181Z,22.95
2022-07-25T03:23:41.119Z,22.95
2022-07-25T03:28:36.901Z,22.97
2022-07-25T03:31:04.852Z,22.96
2022-07-25T03:33:32.964Z,22.95
2022-07-25T03:36:00.799Z,22.95
2022-07-25T03:38:30.436Z,22.96
2022-07-25T03:40:58.256Z,22.95
2022-07-25T03:43:26.109Z,22.94
2022-07-25T03:48:21.721Z,22.93
2022-07-25T03:50:49.561Z,22.95
2022-07-25T03:53:17.437Z,22.99
2022-07-25T03:55:46.704Z,23.01
2022-07-25T03:58:14.562Z,23.04
2022-07-25T04:00:42.526Z,23.09
2022-07-25T04:03:10.451Z,23.10
2022-07-25T04:05:38.300Z,23.12
2022-07-25T04:08:06.362Z,23.15
2022-07-25T04:10:34.464Z,23.17
2022-07-25T04:13:03.885Z,23.22
2022-07-25T04:15:31.838Z,23.26
2022-07-25T04:18:01.140Z,23.33
2022-07-25T04:20:30.039Z,23.38
2022-07-25T04:22:57.972Z,23.42
2022-07-25T04:25:25.763Z,23.46
2022-07-25T04:27:53.678Z,23.51
2022-07-25T04:30:24.194Z,23.56
2022-07-25T04:32:52.688Z,23.59
2022-07-25T04:35:20.599Z,23.60
2022-07-25T04:37:48.447Z,23.60
2022-07-25T04:40:16.597Z,23.61
2022-07-25T04:42:44.506Z,23.62
2022-07-25T04:45:12.858Z,23.61
2022-07-25T04:47:44.994Z,23.63
2022-07-25T04:50:12.928Z,23.65
2022-07-25T04:52:40.898Z,23.67
2022-07-25T04:55:09.593Z,23.75
2022-07-25T04:57:38.268Z,23.80
2022-07-25T05:00:08.841Z,23.87
2022-07-25T05:02:37.316Z,23.89
2022-07-25T05:05:08.523Z,23.93
2022-07-25T05:07:49.081Z,23.93
2022-07-25T05:10:16.863Z,23.94
2022-07-25T05:12:44.634Z,24.01
2022-07-25T05:15:13.387Z,24.09
2022-07-25T05:17:41.248Z,24.18
2022-07-25T05:20:12.192Z,24.26
2022-07-25T05:22:40.017Z,24.38
2022-07-25T05:25:09.396Z,24.52
2022-07-25T05:27:37.277Z,24.63
2022-07-25T05:30:06.977Z,24.69
2022-07-25T05:32:34.940Z,24.74
2022-07-25T05:35:02.784Z,24.71
2022-07-25T05:37:31.990Z,24.68
2022-07-25T05:39:59.728Z,24.64
2022-07-25T05:42:27.896Z,24.62
2022-07-25T05:44:55.670Z,24.58
2022-07-25T05:47:23.543Z,24.48
2022-07-25T05:49:51.306Z,24.41
2022-07-25T05:52:19.140Z,24.39
2022-07-25T05:54:48.336Z,24.33
2022-07-25T05:57:16.121Z,24.31
2022-07-25T05:59:43.939Z,24.29
2022-07-25T06:02:11.923Z,24.33
2022-07-25T06:04:39.860Z,24.40
2022-07-25T06:07:07.653Z,24.50
2022-07-25T06:09:36.310Z,24.61
2022-07-25T06:12:06.493Z,24.72
2022-07-25T06:14:36.176Z,24.84
2022-07-25T06:17:04.006Z,24.96
2022-07-25T06:19:31.801Z,25.06
2022-07-25T06:21:59.596Z,25.12
2022-07-25T06:24:27.424Z,25.14
2022-07-25T06:26:55.165Z,25.17
2022-07-25T06:29:24.312Z,25.21
2022-07-25T06:31:52.148Z,25.25
2022-07-25T06:34:20.011Z,25.28
2022-07-25T06:36:47.855Z,25.27
2022-07-25T06:39:15.705Z,25.32
2022-07-25T06:41:43.501Z,25.39
2022-07-25T06:44:11.247Z,25.49
2022-07-25T06:46:40.659Z,25.60
2022-07-25T06:49:08.588Z,25.76
2022-07-25T06:51:36.412Z,25.93
2022-07-25T06:54:04.881Z,26.11
2022-07-25T06:56:33.045Z,26.24
2022-07-25T06:59:01.607Z,26.40
2022-07-25T07:01:30.290Z,26.53
2022-07-25T07:03:59.619Z,26.68
2022-07-25T07:06:27.417Z,26.85
2022-07-25T07:08:56.139Z,27.00
2022-07-25T07:11:24.122Z,27.09
2022-07-25T07:13:51.946Z,27.14
2022-07-25T07:16:19.846Z,27.20
2022-07-25T07:18:49.460Z,27.28
2022-07-25T07:21:21.441Z,27.39
2022-07-25T07:23:49.403Z,27.51
2022-07-25T07:26:21.476Z,27.66
2022-07-25T07:28:49.280Z,27.76
2022-07-25T07:31:18.402Z,27.88
2022-07-25T07:33:46.728Z,27.92
2022-07-25T07:36:14.875Z,27.99
2022-07-25T07:38:44.577Z,28.07
2022-07-25T07:41:12.773Z,28.13
2022-07-25T07:43:40.597Z,28.14
2022-07-25T07:46:09.056Z,28.13
2022-07-25T07:48:37.301Z,28.10
2022-07-25T07:51:06.001Z,28.08
2022-07-25T07:53:51.253Z,28.14
2022-07-25T07:56:20.587Z,28.13
2022-07-25T07:58:48.567Z,28.11
2022-07-25T08:01:16.420Z,28.12
2022-07-25T08:03:44.301Z,28.13
2022-07-25T08:06:12.346Z,28.16
2022-07-25T08:08:40.211Z,28.13
2022-07-25T08:11:08.244Z,28.20
2022-07-25T08:13:38.169Z,28.27
2022-07-25T08:16:07.321Z,28.37
2022-07-25T08:18:35.250Z,28.52
2022-07-25T08:21:06.084Z,28.62
2022-07-25T08:23:35.448Z,28.64
2022-07-25T08:26:04.062Z,28.65
2022-07-25T08:28:31.907Z,28.67
2022-07-25T08:31:01.667Z,28.64
2022-07-25T08:33:29.619Z,28.62
2022-07-25T08:35:58.738Z,28.64
2022-07-25T08:38:30.600Z,28.63
2022-07-25T08:40:59.744Z,28.68
2022-07-25T08:43:29.282Z,28.62
2022-07-25T08:45:57.158Z,28.54
2022-07-25T08:48:27.750Z,28.53
2022-07-25T08:50:57.493Z,28.58
2022-07-25T08:53:35.088Z,28.61
2022-07-25T08:56:11.164Z,28.55
2022-07-25T08:58:43.971Z,28.52
2022-07-25T09:01:12.551Z,28.56
2022-07-25T09:03:43.181Z,28.65
2022-07-25T09:06:19.953Z,28.73
2022-07-25T09:08:55.722Z,28.80
2022-07-25T09:11:32.345Z,28.91
2022-07-25T09:14:02.086Z,28.97
2022-07-25T09:16:31.625Z,28.99
2022-07-25T09:19:12.655Z,29.07
2022-07-25T09:21:42.192Z,29.02
2022-07-25T09:24:12.871Z,29.03
2022-07-25T09:26:49.872Z,29.05
2022-07-25T09:29:19.598Z,29.02
2022-07-25T09:31:48.018Z,29.06
2022-07-25T09:34:31.054Z,29.11
2022-07-25T09:36:59.396Z,29.08
2022-07-25T09:39:34.932Z,29.01
2022-07-25T09:42:03.147Z,28.88
2022-07-25T09:44:31.312Z,28.94
2022-07-25T09:46:59.854Z,29.00
2022-07-25T09:49:40.277Z,29.00
2022-07-25T09:52:08.473Z,29.00
2022-07-25T09:54:36.641Z,29.02
2022-07-25T09:57:04.660Z,28.98
2022-07-25T09:59:34.387Z,28.98
2022-07-25T10:02:07.997Z,29.02
2022-07-25T10:04:45.819Z,29.12
2022-07-25T10:07:16.716Z,29.13
2022-07-25T10:09:46.737Z,29.14
2022-07-25T10:12:19.347Z,29.24
2022-07-25T10:15:06.906Z,29.27
2022-07-25T10:17:35.255Z,29.32
2022-07-25T10:20:06.569Z,29.33
2022-07-25T10:22:55.811Z,29.39
2022-07-25T10:25:24.763Z,29.49
2022-07-25T10:28:00.048Z,29.45
2022-07-25T10:30:30.167Z,29.50
2022-07-25T10:33:00.618Z,29.61
2022-07-25T10:35:30.257Z,29.75
2022-07-25T10:37:59.759Z,29.78
2022-07-25T10:40:34.770Z,29.83
2022-07-25T10:43:13.352Z,29.89
2022-07-25T10:45:50.391Z,29.94
2022-07-25T10:48:23.442Z,29.97
2022-07-25T10:50:58.094Z,30.01
2022-07-25T10:53:31.820Z,29.99
2022-07-25T10:56:06.188Z,30.05
2022-07-25T10:58:48.861Z,30.06
2022-07-25T11:01:21.626Z,30.09
2022-07-25T11:03:50.387Z,30.12
2022-07-25T11:06:32.222Z,30.00
2022-07-25T11:09:01.219Z,29.91
2022-07-25T11:11:40.453Z,29.89
2022-07-25T11:14:16.608Z,29.99
2022-07-25T11:16:44.910Z,30.11
2022-07-25T11:19:24.380Z,30.12
2022-07-25T11:21:55.778Z,30.21
2022-07-25T11:24:34.750Z,30.35
2022-07-25T11:27:02.577Z,30.31
2022-07-25T11:29:30.481Z,30.34
2022-07-25T11:32:00.544Z,30.33
2022-07-25T11:34:30.241Z,30.31
2022-07-25T11:37:02.621Z,30.25
2022-07-25T11:39:33.559Z,30.29
2022-07-25T11:42:03.603Z,30.35
2022-07-25T11:44:33.499Z,30.39
2022-07-25T11:47:01.691Z,30.40
2022-07-25T11:49:29.589Z,30.40
2022-07-25T11:51:57.478Z,30.44
2022-07-25T11:54:26.596Z,30.43
2022-07-25T11:56:54.387Z,30.58
2022-07-25T11:59:22.339Z,30.56
2022-07-25T12:01:50.178Z,30.47
2022-07-25T12:04:20.279Z,30.48
2022-07-25T12:06:49.714Z,30.43
2022-07-25T12:09:19.603Z,30.31
2022-07-25T12:11:50.768Z,30.14
2022-07-25T12:14:18.651Z,30.09
2022-07-25T12:16:46.605Z,30.12
2022-07-25T12:19:22.650Z,30.16
2022-07-25T12:21:50.441Z,30.11
2022-07-25T12:24:18.286Z,30.15
2022-07-25T12:26:46.076Z,30.20
2022-07-25T12:29:15.235Z,30.04
2022-07-25T12:31:42.989Z,30.01
2022-07-25T12:34:10.757Z,30.05
2022-07-25T12:36:43.943Z,30.06
2022-07-25T12:39:12.357Z,29.95
2022-07-25T12:41:42.429Z,30.15
2022-07-25T12:44:10.162Z,30.30
2022-07-25T12:46:44.591Z,30.35
2022-07-25T12:49:16.898Z,30.39
2022-07-25T12:51:44.865Z,30.42
2022-07-25T12:54:12.633Z,30.34
2022-07-25T12:56:40.405Z,30.19
2022-07-25T12:59:08.553Z,30.12
2022-07-25T13:01:36.744Z,30.13
2022-07-25T13:04:07.304Z,30.03
2022-07-25T13:06:38.594Z,30.17
2022-07-25T13:09:07.759Z,30.27
2022-07-25T13:11:36.001Z,30.24
2022-07-25T13:14:03.858Z,30.43
2022-07-25T13:16:31.702Z,30.46
2022-07-25T13:18:59.551Z,30.48
2022-07-25T13:21:29.520Z,30.47
2022-07-25T13:23:57.274Z,30.47
2022-07-25T13:26:25.169Z,30.50
2022-07-25T13:28:57.911Z,30.44
2022-07-25T13:31:27.553Z,30.23
2022-07-25T13:33:55.506Z,30.13
2022-07-25T13:36:23.262Z,29.80
2022-07-25T13:38:52.343Z,29.77
2022-07-25T13:41:20.119Z,29.81
2022-07-25T13:43:48.888Z,29.98
2022-07-25T13:46:16.782Z,30.05
2022-07-25T13:48:44.749Z,30.07
2022-07-25T13:51:12.675Z,29.98
2022-07-25T13:53:40.454Z,29.98
2022-07-25T13:56:09.690Z,29.94
2022-07-25T13:58:37.541Z,29.85
2022-07-25T14:01:07.253Z,29.81
2022-07-25T14:03:36.275Z,29.80
2022-07-25T14:06:04.501Z,29.75
2022-07-25T14:08:32.609Z,29.69
2022-07-25T14:11:00.336Z,29.62
2022-07-25T14:13:29.470Z,29.41
2022-07-25T14:15:57.245Z,29.30
2022-07-25T14:18:25.017Z,29.15
2022-07-25T14:20:52.784Z,28.99
2022-07-25T14:23:20.561Z,28.86
2022-07-25T14:25:48.388Z,28.83
2022-07-25T14:28:16.156Z,28.87
2022-07-25T14:30:45.267Z,28.90
2022-07-25T14:33:14.164Z,28.63
2022-07-25T14:35:41.921Z,28.71
2022-07-25T14:38:10.103Z,28.80
2022-07-25T14:40:37.941Z,28.82
2022-07-25T14:43:05.854Z,28.70
2022-07-25T14:45:34.137Z,28.63
2022-07-25T14:48:03.406Z,28.69
2022-07-25T14:50:31.141Z,28.72
2022-07-25T14:52:58.888Z,28.72
2022-07-25T14:55:27.144Z,28.63
2022-07-25T14:57:55.204Z,28.50
2022-07-25T15:00:29.243Z,28.43
2022-07-25T15:02:57.782Z,28.08
2022-07-25T15:05:26.929Z,28.10
2022-07-25T15:07:54.640Z,28.03
2022-07-25T15:10:22.681Z,27.80
2022-07-25T15:13:02.304Z,27.96
2022-07-25T15:15:38.485Z,28.25
2022-07-25T15:18:09.463Z,28.23
2022-07-25T15:20:42.728Z,28.26
2022-07-25T15:23:10.456Z,28.33
2022-07-25T15:28:26.379Z,28.54
2022-07-25T15:30:54.207Z,28.55
2022-07-25T15:33:22.299Z,28.52
2022-07-25T15:35:51.428Z,28.38
2022-07-25T15:38:19.830Z,28.30
2022-07-25T15:40:48.206Z,28.17
2022-07-25T15:43:16.090Z,28.12
2022-07-25T15:45:45.869Z,27.97
2022-07-25T15:48:16.126Z,27.99
2022-07-25T15:50:45.776Z,28.04
2022-07-25T15:53:15.609Z,28.05
2022-07-25T15:55:43.562Z,28.01
2022-07-25T15:58:12.182Z,27.97
2022-07-25T16:00:40.919Z,27.97
2022-07-25T16:03:09.590Z,27.99
2022-07-25T16:05:39.374Z,28.08
2022-07-25T16:08:08.620Z,28.17
2022-07-25T16:10:38.483Z,28.30
2022-07-25T16:13:06.388Z,28.22
2022-07-25T16:15:34.591Z,28.16
2022-07-25T16:18:03.200Z,28.06
2022-07-25T16:20:32.379Z,28.06
2022-07-25T16:23:00.484Z,28.06
2022-07-25T16:25:29.601Z,27.98
2022-07-25T16:27:59.118Z,27.93
2022-07-25T16:30:27.251Z,27.91
2022-07-25T16:32:55.651Z,27.81
2022-07-25T16:35:23.736Z,27.73
2022-07-25T16:37:51.983Z,27.68
2022-07-25T16:40:19.747Z,27.67
2022-07-25T16:42:49.638Z,27.62
2022-07-25T16:45:18.842Z,27.66
2022-07-25T16:47:47.557Z,27.62
2022-07-25T16:50:15.331Z,27.55
2022-07-25T16:52:43.082Z,27.51
2022-07-25T16:55:11.109Z,27.55
2022-07-25T16:57:39.984Z,27.62
2022-07-25T17:00:09.788Z,27.76
2022-07-25T17:02:39.739Z,27.89
2022-07-25T17:05:08.060Z,27.99
2022-07-25T17:07:36.259Z,28.01
2022-07-25T17:10:04.932Z,28.04
2022-07-25T17:12:32.675Z,27.99
2022-07-25T17:15:00.446Z,27.94
2022-07-25T17:17:28.592Z,27.85
2022-07-25T17:20:00.078Z,27.79
2022-07-25T17:22:28.097Z,27.76
2022-07-25T17:24:55.813Z,27.82
2022-07-25T17:27:23.921Z,27.79
2022-07-25T17:29:51.802Z,27.66
2022-07-25T17:32:19.559Z,27.59
2022-07-25T17:34:47.338Z,27.54
2022-07-25T17:37:16.574Z,27.49
2022-07-25T17:39:44.372Z,27.42
2022-07-25T17:42:12.237Z,27.42
2022-07-25T17:44:40.068Z,27.40
2022-07-25T17:47:07.844Z,27.36
2022-07-25T17:49:35.701Z,27.24
2022-07-25T17:52:03.465Z,27.22
2022-07-25T17:54:32.677Z,27.13
2022-07-25T17:57:00.524Z,27.06
2022-07-25T17:59:28.239Z,26.90
2022-07-25T18:01:56.036Z,26.79
2022-07-25T18:04:24.276Z,26.68
2022-07-25T18:06:52.170Z,26.51
2022-07-25T18:09:20.372Z,26.42
2022-07-25T18:11:49.565Z,26.37
2022-07-25T18:14:17.554Z,26.26
2022-07-25T18:16:45.844Z,26.23
2022-07-25T18:19:15.955Z,26.28
2022-07-25T18:21:45.049Z,26.17
2022-07-25T18:24:13.335Z,26.08
2022-07-25T18:26:41.185Z,26.03
2022-07-25T18:29:10.667Z,26.06
2022-07-25T18:31:38.634Z,25.91
2022-07-25T18:34:06.634Z,25.96
2022-07-25T18:36:35.267Z,25.92
2022-07-25T18:39:05.277Z,25.91
2022-07-25T18:41:34.123Z,25.88
2022-07-25T18:44:01.929Z,25.89
2022-07-25T18:46:32.821Z,25.83
2022-07-25T18:49:02.080Z,25.71
2022-07-25T18:51:29.861Z,25.68
2022-07-25T18:53:57.628Z,25.64
2022-07-25T18:56:25.551Z,25.55
2022-07-25T18:58:53.303Z,25.49
2022-07-25T19:01:24.240Z,25.40
2022-07-25T19:03:53.365Z,25.36
2022-07-25T19:06:21.139Z,25.30
2022-07-25T19:08:49.090Z,25.25
2022-07-25T19:11:16.876Z,25.22
2022-07-25T19:13:49.990Z,25.09
2022-07-25T19:16:19.151Z,25.11
2022-07-25T19:18:47.207Z,25.12
2022-07-25T19:21:16.813Z,25.09
2022-07-25T19:23:50.513Z,24.98
2022-07-25T19:26:22.821Z,24.88
2022-07-25T19:28:51.360Z,24.86
2022-07-25T19:31:19.202Z,24.82
2022-07-25T19:33:47.446Z,24.80
2022-07-25T19:36:16.638Z,24.73
2022-07-25T19:38:44.389Z,24.69
2022-07-25T19:41:12.249Z,24.71
2022-07-25T19:43:40.044Z,24.73
2022-07-25T19:46:10.845Z,24.68
2022-07-25T19:48:38.793Z,24.67
2022-07-25T19:51:06.849Z,24.64
2022-07-25T19:53:36.237Z,24.67
2022-07-25T19:56:06.684Z,24.68
2022-07-25T19:58:38.682Z,24.71
2022-07-25T20:01:07.758Z,24.65
2022-07-25T20:03:36.201Z,24.57
2022-07-25T20:06:08.079Z,24.50
2022-07-25T20:08:39.290Z,24.52
2022-07-25T20:11:07.519Z,24.57
2022-07-25T20:13:35.719Z,24.52
2022-07-25T20:16:04.000Z,24.47
2022-07-25T20:18:32.098Z,24.50
2022-07-25T20:21:00.851Z,24.48
2022-07-25T20:23:28.643Z,24.47
2022-07-25T20:25:57.853Z,24.45
2022-07-25T20:28:25.655Z,24.47
2022-07-25T20:30:54.056Z,24.41
2022-07-25T20:33:23.809Z,24.27
2022-07-25T20:35:51.585Z,24.27
2022-07-25T20:38:19.377Z,24.27
2022-07-25T20:40:49.692Z,24.21
2022-07-25T20:43:19.802Z,24.15
2022-07-25T20:45:48.040Z,24.07
2022-07-25T20:48:15.969Z,24.02
2022-07-25T20:50:43.920Z,23.99
2022-07-25T20:53:12.262Z,23.93
2022-07-25T20:55:40.223Z,23.76
2022-07-25T20:58:08.258Z,23.80
2022-07-25T21:00:37.635Z,23.75
2022-07-25T21:03:08.266Z,23.70
2022-07-25T21:05:37.642Z,23.59
2022-07-25T21:08:06.020Z,23.48
2022-07-25T21:10:33.904Z,23.37
2022-07-25T21:13:02.353Z,23.31
2022-07-25T21:15:30.818Z,23.28
2022-07-25T21:18:00.399Z,23.22
2022-07-25T21:20:28.430Z,23.20
2022-07-25T21:22:56.374Z,23.22
2022-07-25T21:25:24.079Z,23.20
2022-07-25T21:27:51.912Z,23.18
2022-07-25T21:30:19.701Z,23.15
2022-07-25T21:32:47.617Z,23.09
2022-07-25T21:35:18.101Z,23.05
2022-07-25T21:37:45.848Z,22.98
2022-07-25T21:40:14.099Z,22.91
2022-07-25T21:42:42.607Z,22.83
2022-07-25T21:45:11.188Z,22.77
2022-07-25T21:47:38.997Z,22.73
2022-07-25T21:50:27.552Z,22.71
2022-07-25T21:52:57.385Z,22.70
2022-07-25T21:55:25.338Z,22.69
2022-07-25T21:57:53.133Z,22.66
2022-07-25T22:00:21.537Z,22.59
2022-07-25T22:02:49.590Z,22.55
2022-07-25T22:05:19.135Z,22.54
2022-07-25T22:07:48.187Z,22.51
2022-07-25T22:10:19.299Z,22.51
2022-07-25T22:12:47.091Z,22.51
2022-07-25T22:15:15.311Z,22.53
2022-07-25T22:17:48.175Z,22.55
2022-07-25T22:20:18.035Z,22.52
2022-07-25T22:22:46.545Z,22.50
2022-07-25T22:25:14.431Z,22.51
2022-07-25T22:27:43.767Z,22.52
2022-07-25T22:30:18.290Z,22.56
2022-07-25T22:32:47.060Z,22.55
2022-07-25T22:35:15.231Z,22.57
2022-07-25T22:37:43.023Z,22.57
2022-07-25T22:40:11.840Z,22.51
2022-07-25T22:42:39.612Z,22.50
2022-07-25T22:45:09.763Z,22.51
2022-07-25T22:47:37.567Z,22.50
2022-07-25T22:50:06.796Z,22.50
2022-07-25T22:52:35.373Z,22.44
2022-07-25T22:55:03.119Z,22.43
2022-07-25T22:57:36.780Z,22.40
2022-07-25T23:00:09.790Z,22.35
2022-07-25T23:02:37.765Z,22.31
2022-07-25T23:05:06.809Z,22.31
2022-07-25T23:07:35.350Z,22.30
2022-07-25T23:10:03.497Z,22.25
2022-07-25T23:12:31.266Z,22.25
2022-07-25T23:14:59.033Z,22.24
2022-07-25T23:17:28.127Z,22.19
2022-07-25T23:19:57.266Z,22.16
2022-07-25T23:22:28.196Z,22.11
2022-07-25T23:24:56.374Z,22.11
2022-07-25T23:27:25.291Z,22.09
2022-07-25T23:29:53.220Z,22.07
2022-07-25T23:32:21.257Z,22.04
2022-07-25T23:34:50.390Z,22.00
2022-07-25T23:37:18.217Z,21.95
2022-07-25T23:39:45.963Z,21.89
2022-07-25T23:42:13.715Z,21.86
2022-07-25T23:44:42.036Z,21.83
2022-07-25T23:47:12.487Z,21.78
2022-07-25T23:49:41.025Z,21.75
2022-07-25T23:52:10.251Z,21.70
2022-07-25T23:54:40.474Z,21.65
2022-07-25T23:57:08.855Z,21.60
2022-07-25T23:59:37.140Z,21.53
